Grambling, Louisiana
Current Conditions -  °F | °C
As of 8:35 AM on Tuesday 21 Oct 2014 (Local Time) from KRSN Reporting Station
Overcast Overcast  
Wind Chill: 59°   Ceiling: 4800
Heat Index: 59°   Visibility: 10mi
Dew Point: 59°   Wind: 0mph
Humidity: 100%   Direction: NA
Pressure: 30.14"   Gusts: NA
Location:  32.53°N, 92.72°W
Report Text: KRSN 211335Z AUTO 00000KT 10SM OVC048 15/15 A3014 RMK AO2 T01500150
Loading
Personal Weather Stations






























Interactive Weather Map
Tropical Storm Tracking
New forecast layout! Learn more

10-Day Weather Forecast

Advertisements
Track Severe Weather on mobile